sensor_id;sensor_type;location;lat;lon;timestamp;pressure;altitude;pressure_sealevel;temperature
8227;BMP180;4154;48.810;9.012;2023-02-23T00:01:40;96726.00;;;8.00
8227;BMP180;4154;48.810;9.012;2023-02-23T00:04:07;96721.00;;;8.00
8227;BMP180;4154;48.810;9.012;2023-02-23T00:06:35;96722.00;;;8.10
8227;BMP180;4154;48.810;9.012;2023-02-23T00:09:02;96717.00;;;8.10
8227;BMP180;4154;48.810;9.012;2023-02-23T00:11:32;96724.00;;;8.10
8227;BMP180;4154;48.810;9.012;2023-02-23T00:13:58;96717.00;;;8.10
8227;BMP180;4154;48.810;9.012;2023-02-23T00:16:26;96723.00;;;8.00
8227;BMP180;4154;48.810;9.012;2023-02-23T00:18:55;96726.00;;;8.00
8227;BMP180;4154;48.810;9.012;2023-02-23T00:21:24;96730.00;;;8.00
8227;BMP180;4154;48.810;9.012;2023-02-23T00:23:57;96715.00;;;8.00
8227;BMP180;4154;48.810;9.012;2023-02-23T00:26:27;96721.00;;;7.90
8227;BMP180;4154;48.810;9.012;2023-02-23T00:28:56;96708.00;;;8.00
8227;BMP180;4154;48.810;9.012;2023-02-23T00:31:24;96721.00;;;7.90
8227;BMP180;4154;48.810;9.012;2023-02-23T00:33:56;96716.00;;;7.80
8227;BMP180;4154;48.810;9.012;2023-02-23T00:36:27;96713.00;;;7.90
8227;BMP180;4154;48.810;9.012;2023-02-23T00:38:56;96716.00;;;7.90
8227;BMP180;4154;48.810;9.012;2023-02-23T00:41:23;96708.00;;;7.90
8227;BMP180;4154;48.810;9.012;2023-02-23T00:43:59;96711.00;;;7.90
8227;BMP180;4154;48.810;9.012;2023-02-23T00:46:28;96712.00;;;7.80
8227;BMP180;4154;48.810;9.012;2023-02-23T00:48:57;96717.00;;;7.80
8227;BMP180;4154;48.810;9.012;2023-02-23T00:51:25;96706.00;;;7.80
8227;BMP180;4154;48.810;9.012;2023-02-23T00:53:57;96714.00;;;7.80
8227;BMP180;4154;48.810;9.012;2023-02-23T00:56:23;96715.00;;;7.80
8227;BMP180;4154;48.810;9.012;2023-02-23T00:58:49;96701.00;;;7.70
8227;BMP180;4154;48.810;9.012;2023-02-23T01:01:16;96706.00;;;7.70
8227;BMP180;4154;48.810;9.012;2023-02-23T01:03:43;96707.00;;;7.70
8227;BMP180;4154;48.810;9.012;2023-02-23T01:06:13;96711.00;;;7.70
8227;BMP180;4154;48.810;9.012;2023-02-23T01:08:46;96712.00;;;7.80
8227;BMP180;4154;48.810;9.012;2023-02-23T01:11:18;96711.00;;;7.70
8227;BMP180;4154;48.810;9.012;2023-02-23T01:13:46;96702.00;;;7.70
8227;BMP180;4154;48.810;9.012;2023-02-23T01:16:16;96696.00;;;7.70
8227;BMP180;4154;48.810;9.012;2023-02-23T01:18:43;96701.00;;;7.80
8227;BMP180;4154;48.810;9.012;2023-02-23T01:21:19;96705.00;;;7.80
8227;BMP180;4154;48.810;9.012;2023-02-23T01:23:45;96711.00;;;7.80
8227;BMP180;4154;48.810;9.012;2023-02-23T01:26:33;96709.00;;;7.80
8227;BMP180;4154;48.810;9.012;2023-02-23T01:29:25;96710.00;;;7.80
8227;BMP180;4154;48.810;9.012;2023-02-23T01:31:50;96695.00;;;7.70
8227;BMP180;4154;48.810;9.012;2023-02-23T01:34:18;96701.00;;;7.70
8227;BMP180;4154;48.810;9.012;2023-02-23T01:36:46;96699.00;;;7.70
8227;BMP180;4154;48.810;9.012;2023-02-23T01:39:16;96692.00;;;7.70
8227;BMP180;4154;48.810;9.012;2023-02-23T01:41:43;96696.00;;;7.70
8227;BMP180;4154;48.810;9.012;2023-02-23T01:46:45;96689.00;;;7.70
8227;BMP180;4154;48.810;9.012;2023-02-23T01:49:16;96691.00;;;7.80
8227;BMP180;4154;48.810;9.012;2023-02-23T01:51:51;96691.00;;;7.80
8227;BMP180;4154;48.810;9.012;2023-02-23T01:54:28;96689.00;;;7.80
8227;BMP180;4154;48.810;9.012;2023-02-23T01:56:59;96695.00;;;7.80
8227;BMP180;4154;48.810;9.012;2023-02-23T01:59:31;96686.00;;;7.70
8227;BMP180;4154;48.810;9.012;2023-02-23T02:02:00;96689.00;;;7.80
8227;BMP180;4154;48.810;9.012;2023-02-23T02:04:33;96683.00;;;7.70
8227;BMP180;4154;48.810;9.012;2023-02-23T02:07:12;96683.00;;;7.70
8227;BMP180;4154;48.810;9.012;2023-02-23T02:09:40;96682.00;;;7.70
8227;BMP180;4154;48.810;9.012;2023-02-23T02:12:25;96682.00;;;7.70
8227;BMP180;4154;48.810;9.012;2023-02-23T02:14:51;96685.00;;;7.80
8227;BMP180;4154;48.810;9.012;2023-02-23T02:20:41;96684.00;;;7.80
8227;BMP180;4154;48.810;9.012;2023-02-23T02:24:09;96667.00;;;7.80
8227;BMP180;4154;48.810;9.012;2023-02-23T02:27:21;96677.00;;;7.80
8227;BMP180;4154;48.810;9.012;2023-02-23T02:30:20;96668.00;;;7.80
8227;BMP180;4154;48.810;9.012;2023-02-23T02:39:27;96672.00;;;7.80
8227;BMP180;4154;48.810;9.012;2023-02-23T02:44:48;96663.00;;;7.80
8227;BMP180;4154;48.810;9.012;2023-02-23T02:47:37;96657.00;;;7.80
8227;BMP180;4154;48.810;9.012;2023-02-23T02:50:22;96667.00;;;7.80
8227;BMP180;4154;48.810;9.012;2023-02-23T02:53:09;96658.00;;;7.80
8227;BMP180;4154;48.810;9.012;2023-02-23T02:55:40;96662.00;;;7.80
8227;BMP180;4154;48.810;9.012;2023-02-23T02:58:10;96659.00;;;7.80
8227;BMP180;4154;48.810;9.012;2023-02-23T03:00:40;96654.00;;;7.80
8227;BMP180;4154;48.810;9.012;2023-02-23T03:03:42;96658.00;;;7.80
8227;BMP180;4154;48.810;9.012;2023-02-23T03:06:44;96650.00;;;7.80
8227;BMP180;4154;48.810;9.012;2023-02-23T03:09:36;96663.00;;;7.80
8227;BMP180;4154;48.810;9.012;2023-02-23T03:13:00;96652.00;;;7.80
8227;BMP180;4154;48.810;9.012;2023-02-23T03:16:23;96647.00;;;7.80
8227;BMP180;4154;48.810;9.012;2023-02-23T03:19:31;96656.00;;;7.80
8227;BMP180;4154;48.810;9.012;2023-02-23T03:22:31;96660.00;;;7.80
8227;BMP180;4154;48.810;9.012;2023-02-23T03:26:24;96660.00;;;7.80
8227;BMP180;4154;48.810;9.012;2023-02-23T03:28:58;96659.00;;;7.80
8227;BMP180;4154;48.810;9.012;2023-02-23T03:31:52;96657.00;;;7.80
8227;BMP180;4154;48.810;9.012;2023-02-23T03:37:54;96662.00;;;7.90
8227;BMP180;4154;48.810;9.012;2023-02-23T03:40:42;96665.00;;;7.90
8227;BMP180;4154;48.810;9.012;2023-02-23T03:43:44;96669.00;;;8.00
8227;BMP180;4154;48.810;9.012;2023-02-23T03:46:31;96667.00;;;8.00
8227;BMP180;4154;48.810;9.012;2023-02-23T03:49:18;96656.00;;;8.00
8227;BMP180;4154;48.810;9.012;2023-02-23T03:52:17;96662.00;;;7.90
8227;BMP180;4154;48.810;9.012;2023-02-23T03:55:13;96661.00;;;8.00
8227;BMP180;4154;48.810;9.012;2023-02-23T03:58:05;96665.00;;;8.00
8227;BMP180;4154;48.810;9.012;2023-02-23T04:00:53;96659.00;;;8.00
8227;BMP180;4154;48.810;9.012;2023-02-23T04:03:45;96661.00;;;8.00
8227;BMP180;4154;48.810;9.012;2023-02-23T04:06:38;96662.00;;;8.00
8227;BMP180;4154;48.810;9.012;2023-02-23T04:09:23;96668.00;;;8.00
8227;BMP180;4154;48.810;9.012;2023-02-23T04:12:33;96659.00;;;8.00
8227;BMP180;4154;48.810;9.012;2023-02-23T04:15:47;96671.00;;;8.00
8227;BMP180;4154;48.810;9.012;2023-02-23T04:18:18;96665.00;;;8.10
8227;BMP180;4154;48.810;9.012;2023-02-23T04:20:45;96663.00;;;8.10
8227;BMP180;4154;48.810;9.012;2023-02-23T04:23:10;96661.00;;;8.10
8227;BMP180;4154;48.810;9.012;2023-02-23T04:25:36;96667.00;;;8.10
8227;BMP180;4154;48.810;9.012;2023-02-23T04:28:02;96659.00;;;8.10
8227;BMP180;4154;48.810;9.012;2023-02-23T04:30:28;96672.00;;;8.10
8227;BMP180;4154;48.810;9.012;2023-02-23T04:32:54;96667.00;;;8.10
8227;BMP180;4154;48.810;9.012;2023-02-23T04:35:21;96664.00;;;8.20
8227;BMP180;4154;48.810;9.012;2023-02-23T04:37:46;96667.00;;;8.20
8227;BMP180;4154;48.810;9.012;2023-02-23T04:40:12;96677.00;;;8.20
8227;BMP180;4154;48.810;9.012;2023-02-23T04:42:39;96675.00;;;8.20
8227;BMP180;4154;48.810;9.012;2023-02-23T04:45:07;96667.00;;;8.20
8227;BMP180;4154;48.810;9.012;2023-02-23T04:47:33;96678.00;;;8.20
8227;BMP180;4154;48.810;9.012;2023-02-23T04:49:58;96676.00;;;8.20
8227;BMP180;4154;48.810;9.012;2023-02-23T04:52:24;96667.00;;;8.20
8227;BMP180;4154;48.810;9.012;2023-02-23T04:54:50;96678.00;;;8.20
8227;BMP180;4154;48.810;9.012;2023-02-23T04:57:16;96677.00;;;8.20
8227;BMP180;4154;48.810;9.012;2023-02-23T04:59:41;96676.00;;;8.20
8227;BMP180;4154;48.810;9.012;2023-02-23T05:02:08;96676.00;;;8.20
8227;BMP180;4154;48.810;9.012;2023-02-23T05:04:34;96670.00;;;8.20
8227;BMP180;4154;48.810;9.012;2023-02-23T05:07:00;96678.00;;;8.20
8227;BMP180;4154;48.810;9.012;2023-02-23T05:09:28;96670.00;;;8.20
8227;BMP180;4154;48.810;9.012;2023-02-23T05:11:54;96668.00;;;8.20
8227;BMP180;4154;48.810;9.012;2023-02-23T05:14:21;96674.00;;;8.20
8227;BMP180;4154;48.810;9.012;2023-02-23T05:16:47;96671.00;;;8.20
8227;BMP180;4154;48.810;9.012;2023-02-23T05:19:13;96665.00;;;8.20
8227;BMP180;4154;48.810;9.012;2023-02-23T05:21:38;96679.00;;;8.20
8227;BMP180;4154;48.810;9.012;2023-02-23T05:24:06;96674.00;;;8.20
8227;BMP180;4154;48.810;9.012;2023-02-23T05:26:32;96684.00;;;8.20
8227;BMP180;4154;48.810;9.012;2023-02-23T05:28:57;96668.00;;;8.20
8227;BMP180;4154;48.810;9.012;2023-02-23T05:31:24;96677.00;;;8.10
8227;BMP180;4154;48.810;9.012;2023-02-23T05:33:51;96669.00;;;8.10
8227;BMP180;4154;48.810;9.012;2023-02-23T05:36:18;96678.00;;;8.10
8227;BMP180;4154;48.810;9.012;2023-02-23T05:38:45;96673.00;;;8.10
8227;BMP180;4154;48.810;9.012;2023-02-23T05:41:18;96676.00;;;8.10
8227;BMP180;4154;48.810;9.012;2023-02-23T05:43:45;96680.00;;;8.10
8227;BMP180;4154;48.810;9.012;2023-02-23T05:46:16;96675.00;;;8.10
8227;BMP180;4154;48.810;9.012;2023-02-23T05:48:41;96672.00;;;8.10
8227;BMP180;4154;48.810;9.012;2023-02-23T05:51:11;96683.00;;;8.10
8227;BMP180;4154;48.810;9.012;2023-02-23T05:53:37;96681.00;;;8.20
8227;BMP180;4154;48.810;9.012;2023-02-23T05:56:06;96678.00;;;8.10
8227;BMP180;4154;48.810;9.012;2023-02-23T05:58:32;96672.00;;;8.10
8227;BMP180;4154;48.810;9.012;2023-02-23T06:00:58;96672.00;;;8.10
8227;BMP180;4154;48.810;9.012;2023-02-23T06:03:24;96676.00;;;8.20
8227;BMP180;4154;48.810;9.012;2023-02-23T06:05:51;96682.00;;;8.20
8227;BMP180;4154;48.810;9.012;2023-02-23T06:08:17;96680.00;;;8.10
8227;BMP180;4154;48.810;9.012;2023-02-23T06:10:43;96679.00;;;8.20
8227;BMP180;4154;48.810;9.012;2023-02-23T06:13:09;96682.00;;;8.20
8227;BMP180;4154;48.810;9.012;2023-02-23T06:15:35;96676.00;;;8.20
8227;BMP180;4154;48.810;9.012;2023-02-23T06:18:02;96677.00;;;8.20
8227;BMP180;4154;48.810;9.012;2023-02-23T06:20:28;96685.00;;;8.20
8227;BMP180;4154;48.810;9.012;2023-02-23T06:22:53;96687.00;;;8.20
8227;BMP180;4154;48.810;9.012;2023-02-23T06:25:19;96689.00;;;8.20
8227;BMP180;4154;48.810;9.012;2023-02-23T06:27:45;96690.00;;;8.10
8227;BMP180;4154;48.810;9.012;2023-02-23T06:30:12;96680.00;;;8.20
8227;BMP180;4154;48.810;9.012;2023-02-23T06:32:37;96686.00;;;8.20
8227;BMP180;4154;48.810;9.012;2023-02-23T06:35:07;96688.00;;;8.20
8227;BMP180;4154;48.810;9.012;2023-02-23T06:37:34;96692.00;;;8.20
8227;BMP180;4154;48.810;9.012;2023-02-23T06:40:01;96678.00;;;8.20
8227;BMP180;4154;48.810;9.012;2023-02-23T06:42:27;96685.00;;;8.10
8227;BMP180;4154;48.810;9.012;2023-02-23T06:44:53;96693.00;;;8.20
8227;BMP180;4154;48.810;9.012;2023-02-23T06:47:18;96694.00;;;8.10
8227;BMP180;4154;48.810;9.012;2023-02-23T06:49:44;96701.00;;;8.10
8227;BMP180;4154;48.810;9.012;2023-02-23T06:52:11;96706.00;;;8.10
8227;BMP180;4154;48.810;9.012;2023-02-23T06:54:39;96706.00;;;8.10
8227;BMP180;4154;48.810;9.012;2023-02-23T06:57:07;96711.00;;;8.10
8227;BMP180;4154;48.810;9.012;2023-02-23T06:59:32;96706.00;;;8.10
8227;BMP180;4154;48.810;9.012;2023-02-23T07:01:58;96712.00;;;8.10
8227;BMP180;4154;48.810;9.012;2023-02-23T07:04:24;96709.00;;;8.10
8227;BMP180;4154;48.810;9.012;2023-02-23T07:06:51;96720.00;;;8.10
8227;BMP180;4154;48.810;9.012;2023-02-23T07:09:17;96712.00;;;8.10
8227;BMP180;4154;48.810;9.012;2023-02-23T07:11:43;96723.00;;;8.20
8227;BMP180;4154;48.810;9.012;2023-02-23T07:14:10;96728.00;;;8.20
8227;BMP180;4154;48.810;9.012;2023-02-23T07:16:37;96730.00;;;8.20
8227;BMP180;4154;48.810;9.012;2023-02-23T07:19:03;96731.00;;;8.20
8227;BMP180;4154;48.810;9.012;2023-02-23T07:21:30;96734.00;;;8.20
8227;BMP180;4154;48.810;9.012;2023-02-23T07:24:00;96736.00;;;8.20
8227;BMP180;4154;48.810;9.012;2023-02-23T07:26:26;96745.00;;;8.20
8227;BMP180;4154;48.810;9.012;2023-02-23T07:28:52;96741.00;;;8.30
8227;BMP180;4154;48.810;9.012;2023-02-23T07:31:18;96752.00;;;8.30
8227;BMP180;4154;48.810;9.012;2023-02-23T07:33:44;96752.00;;;8.30
8227;BMP180;4154;48.810;9.012;2023-02-23T07:36:10;96748.00;;;8.40
8227;BMP180;4154;48.810;9.012;2023-02-23T07:38:36;96751.00;;;8.40
8227;BMP180;4154;48.810;9.012;2023-02-23T07:41:03;96740.00;;;8.40
8227;BMP180;4154;48.810;9.012;2023-02-23T07:43:29;96748.00;;;8.40
8227;BMP180;4154;48.810;9.012;2023-02-23T07:45:59;96748.00;;;8.40
8227;BMP180;4154;48.810;9.012;2023-02-23T07:48:25;96753.00;;;8.40
8227;BMP180;4154;48.810;9.012;2023-02-23T07:50:51;96754.00;;;8.40
8227;BMP180;4154;48.810;9.012;2023-02-23T07:53:17;96749.00;;;8.40
8227;BMP180;4154;48.810;9.012;2023-02-23T07:55:43;96758.00;;;8.40
8227;BMP180;4154;48.810;9.012;2023-02-23T07:58:09;96753.00;;;8.50
8227;BMP180;4154;48.810;9.012;2023-02-23T08:00:35;96753.00;;;8.40
8227;BMP180;4154;48.810;9.012;2023-02-23T08:03:06;96766.00;;;8.50
8227;BMP180;4154;48.810;9.012;2023-02-23T08:05:32;96752.00;;;8.50
8227;BMP180;4154;48.810;9.012;2023-02-23T08:07:58;96748.00;;;8.60
8227;BMP180;4154;48.810;9.012;2023-02-23T08:10:24;96753.00;;;8.60
8227;BMP180;4154;48.810;9.012;2023-02-23T08:12:50;96758.00;;;8.60
8227;BMP180;4154;48.810;9.012;2023-02-23T08:15:16;96759.00;;;8.70
8227;BMP180;4154;48.810;9.012;2023-02-23T08:17:43;96749.00;;;8.70
8227;BMP180;4154;48.810;9.012;2023-02-23T08:20:15;96755.00;;;8.80
8227;BMP180;4154;48.810;9.012;2023-02-23T08:22:41;96756.00;;;8.80
8227;BMP180;4154;48.810;9.012;2023-02-23T08:25:08;96755.00;;;8.90
8227;BMP180;4154;48.810;9.012;2023-02-23T08:27:36;96763.00;;;8.90
8227;BMP180;4154;48.810;9.012;2023-02-23T08:30:05;96761.00;;;9.00
8227;BMP180;4154;48.810;9.012;2023-02-23T08:32:34;96763.00;;;9.00
8227;BMP180;4154;48.810;9.012;2023-02-23T08:35:01;96759.00;;;9.10
8227;BMP180;4154;48.810;9.012;2023-02-23T08:37:30;96754.00;;;9.10
8227;BMP180;4154;48.810;9.012;2023-02-23T08:39:56;96757.00;;;9.20
8227;BMP180;4154;48.810;9.012;2023-02-23T08:42:23;96756.00;;;9.20
8227;BMP180;4154;48.810;9.012;2023-02-23T08:44:52;96761.00;;;9.20
8227;BMP180;4154;48.810;9.012;2023-02-23T08:47:17;96763.00;;;9.20
8227;BMP180;4154;48.810;9.012;2023-02-23T08:49:49;96767.00;;;9.20
8227;BMP180;4154;48.810;9.012;2023-02-23T08:52:16;96764.00;;;9.20
8227;BMP180;4154;48.810;9.012;2023-02-23T08:54:42;96773.00;;;9.30
8227;BMP180;4154;48.810;9.012;2023-02-23T08:57:07;96760.00;;;9.30
8227;BMP180;4154;48.810;9.012;2023-02-23T08:59:33;96751.00;;;9.20
8227;BMP180;4154;48.810;9.012;2023-02-23T09:01:59;96764.00;;;9.30
8227;BMP180;4154;48.810;9.012;2023-02-23T09:04:24;96769.00;;;9.30
8227;BMP180;4154;48.810;9.012;2023-02-23T09:06:51;96762.00;;;9.40
8227;BMP180;4154;48.810;9.012;2023-02-23T09:09:17;96771.00;;;9.40
8227;BMP180;4154;48.810;9.012;2023-02-23T09:11:43;96766.00;;;9.50
8227;BMP180;4154;48.810;9.012;2023-02-23T09:14:09;96776.00;;;9.60
8227;BMP180;4154;48.810;9.012;2023-02-23T09:16:35;96764.00;;;9.60
8227;BMP180;4154;48.810;9.012;2023-02-23T09:19:02;96768.00;;;9.70
8227;BMP180;4154;48.810;9.012;2023-02-23T09:21:28;96770.00;;;9.70
8227;BMP180;4154;48.810;9.012;2023-02-23T09:23:55;96769.00;;;9.80
8227;BMP180;4154;48.810;9.012;2023-02-23T09:26:22;96771.00;;;9.80
8227;BMP180;4154;48.810;9.012;2023-02-23T09:28:49;96768.00;;;9.90
8227;BMP180;4154;48.810;9.012;2023-02-23T09:31:21;96764.00;;;10.00
8227;BMP180;4154;48.810;9.012;2023-02-23T09:33:48;96768.00;;;10.00
8227;BMP180;4154;48.810;9.012;2023-02-23T09:36:19;96763.00;;;10.10
8227;BMP180;4154;48.810;9.012;2023-02-23T09:38:48;96765.00;;;10.10
8227;BMP180;4154;48.810;9.012;2023-02-23T09:41:45;96768.00;;;10.20
8227;BMP180;4154;48.810;9.012;2023-02-23T09:47:14;96766.00;;;10.30
8227;BMP180;4154;48.810;9.012;2023-02-23T09:49:47;96763.00;;;10.40
8227;BMP180;4154;48.810;9.012;2023-02-23T09:52:23;96754.00;;;10.40
8227;BMP180;4154;48.810;9.012;2023-02-23T09:54:50;96763.00;;;10.40
8227;BMP180;4154;48.810;9.012;2023-02-23T09:57:32;96756.00;;;10.50
8227;BMP180;4154;48.810;9.012;2023-02-23T10:00:00;96767.00;;;10.50
8227;BMP180;4154;48.810;9.012;2023-02-23T10:03:10;96773.00;;;10.60
8227;BMP180;4154;48.810;9.012;2023-02-23T10:05:53;96775.00;;;10.70
8227;BMP180;4154;48.810;9.012;2023-02-23T10:08:45;96775.00;;;10.70
8227;BMP180;4154;48.810;9.012;2023-02-23T10:17:10;96773.00;;;10.80
8227;BMP180;4154;48.810;9.012;2023-02-23T10:19:52;96771.00;;;10.80
8227;BMP180;4154;48.810;9.012;2023-02-23T10:22:21;96761.00;;;10.70
8227;BMP180;4154;48.810;9.012;2023-02-23T10:24:55;96763.00;;;10.70
8227;BMP180;4154;48.810;9.012;2023-02-23T10:27:29;96755.00;;;10.80
8227;BMP180;4154;48.810;9.012;2023-02-23T10:29:59;96768.00;;;10.80
8227;BMP180;4154;48.810;9.012;2023-02-23T10:32:45;96769.00;;;10.90
8227;BMP180;4154;48.810;9.012;2023-02-23T10:35:20;96769.00;;;10.90
8227;BMP180;4154;48.810;9.012;2023-02-23T10:37:47;96766.00;;;11.00
8227;BMP180;4154;48.810;9.012;2023-02-23T10:40:20;96769.00;;;11.00
8227;BMP180;4154;48.810;9.012;2023-02-23T10:42:47;96764.00;;;11.10
8227;BMP180;4154;48.810;9.012;2023-02-23T10:45:20;96774.00;;;11.10
8227;BMP180;4154;48.810;9.012;2023-02-23T10:47:59;96771.00;;;11.20
8227;BMP180;4154;48.810;9.012;2023-02-23T10:50:27;96769.00;;;11.30
8227;BMP180;4154;48.810;9.012;2023-02-23T10:55:44;96767.00;;;11.40
8227;BMP180;4154;48.810;9.012;2023-02-23T10:58:14;96766.00;;;11.50
8227;BMP180;4154;48.810;9.012;2023-02-23T11:01:01;96765.00;;;11.50
8227;BMP180;4154;48.810;9.012;2023-02-23T11:03:46;96763.00;;;11.60
8227;BMP180;4154;48.810;9.012;2023-02-23T11:06:37;96766.00;;;11.60
8227;BMP180;4154;48.810;9.012;2023-02-23T11:09:27;96758.00;;;11.70
8227;BMP180;4154;48.810;9.012;2023-02-23T11:12:15;96753.00;;;11.80
8227;BMP180;4154;48.810;9.012;2023-02-23T11:14:44;96751.00;;;11.70
8227;BMP180;4154;48.810;9.012;2023-02-23T11:22:43;96739.00;;;11.90
8227;BMP180;4154;48.810;9.012;2023-02-23T11:25:29;96734.00;;;11.90
8227;BMP180;4154;48.810;9.012;2023-02-23T11:27:56;96736.00;;;12.00
8227;BMP180;4154;48.810;9.012;2023-02-23T11:30:32;96736.00;;;12.00
8227;BMP180;4154;48.810;9.012;2023-02-23T11:33:04;96736.00;;;12.10
8227;BMP180;4154;48.810;9.012;2023-02-23T11:35:37;96726.00;;;12.10
8227;BMP180;4154;48.810;9.012;2023-02-23T11:38:26;96730.00;;;12.20
8227;BMP180;4154;48.810;9.012;2023-02-23T11:41:02;96720.00;;;12.30
8227;BMP180;4154;48.810;9.012;2023-02-23T11:43:29;96727.00;;;12.30
8227;BMP180;4154;48.810;9.012;2023-02-23T11:45:58;96720.00;;;12.30
8227;BMP180;4154;48.810;9.012;2023-02-23T11:51:04;96720.00;;;12.40
8227;BMP180;4154;48.810;9.012;2023-02-23T11:53:44;96723.00;;;12.50
8227;BMP180;4154;48.810;9.012;2023-02-23T11:56:11;96712.00;;;12.60
8227;BMP180;4154;48.810;9.012;2023-02-23T11:58:46;96712.00;;;12.60
8227;BMP180;4154;48.810;9.012;2023-02-23T12:01:19;96719.00;;;12.70
8227;BMP180;4154;48.810;9.012;2023-02-23T12:03:56;96717.00;;;12.70
8227;BMP180;4154;48.810;9.012;2023-02-23T12:06:39;96721.00;;;12.70
8227;BMP180;4154;48.810;9.012;2023-02-23T12:09:18;96716.00;;;12.70
8227;BMP180;4154;48.810;9.012;2023-02-23T12:11:53;96712.00;;;12.70
8227;BMP180;4154;48.810;9.012;2023-02-23T12:20:36;96710.00;;;12.40
8227;BMP180;4154;48.810;9.012;2023-02-23T12:23:29;96720.00;;;12.50
8227;BMP180;4154;48.810;9.012;2023-02-23T12:26:05;96715.00;;;12.40
8227;BMP180;4154;48.810;9.012;2023-02-23T12:28:52;96712.00;;;12.40
8227;BMP180;4154;48.810;9.012;2023-02-23T12:31:41;96716.00;;;12.30
8227;BMP180;4154;48.810;9.012;2023-02-23T12:34:27;96714.00;;;12.20
8227;BMP180;4154;48.810;9.012;2023-02-23T12:39:42;96722.00;;;12.20
8227;BMP180;4154;48.810;9.012;2023-02-23T12:42:17;96714.00;;;12.00
8227;BMP180;4154;48.810;9.012;2023-02-23T12:44:54;96709.00;;;12.00
8227;BMP180;4154;48.810;9.012;2023-02-23T12:47:40;96712.00;;;12.00
8227;BMP180;4154;48.810;9.012;2023-02-23T12:50:21;96712.00;;;12.00
8227;BMP180;4154;48.810;9.012;2023-02-23T12:52:55;96707.00;;;11.90
8227;BMP180;4154;48.810;9.012;2023-02-23T12:58:28;96703.00;;;11.90
8227;BMP180;4154;48.810;9.012;2023-02-23T13:01:35;96710.00;;;11.90
8227;BMP180;4154;48.810;9.012;2023-02-23T13:04:44;96702.00;;;11.80
8227;BMP180;4154;48.810;9.012;2023-02-23T13:10:19;96700.00;;;11.80
8227;BMP180;4154;48.810;9.012;2023-02-23T13:18:40;96702.00;;;11.60
8227;BMP180;4154;48.810;9.012;2023-02-23T13:21:33;96710.00;;;11.70
8227;BMP180;4154;48.810;9.012;2023-02-23T13:24:07;96711.00;;;11.80
8227;BMP180;4154;48.810;9.012;2023-02-23T13:27:00;96706.00;;;11.70
8227;BMP180;4154;48.810;9.012;2023-02-23T13:29:37;96717.00;;;11.70
8227;BMP180;4154;48.810;9.012;2023-02-23T13:32:15;96703.00;;;11.70
8227;BMP180;4154;48.810;9.012;2023-02-23T13:34:57;96705.00;;;11.70
8227;BMP180;4154;48.810;9.012;2023-02-23T13:37:30;96710.00;;;11.60
8227;BMP180;4154;48.810;9.012;2023-02-23T13:43:21;96700.00;;;11.60
8227;BMP180;4154;48.810;9.012;2023-02-23T13:48:46;96701.00;;;11.70
8227;BMP180;4154;48.810;9.012;2023-02-23T13:51:27;96705.00;;;11.70
8227;BMP180;4154;48.810;9.012;2023-02-23T13:56:53;96697.00;;;11.70
8227;BMP180;4154;48.810;9.012;2023-02-23T13:59:27;96701.00;;;11.60
8227;BMP180;4154;48.810;9.012;2023-02-23T14:01:55;96703.00;;;11.60
8227;BMP180;4154;48.810;9.012;2023-02-23T14:04:33;96701.00;;;11.60
8227;BMP180;4154;48.810;9.012;2023-02-23T14:07:20;96698.00;;;11.60
8227;BMP180;4154;48.810;9.012;2023-02-23T14:09:56;96697.00;;;11.50
8227;BMP180;4154;48.810;9.012;2023-02-23T14:12:34;96701.00;;;11.50
8227;BMP180;4154;48.810;9.012;2023-02-23T14:20:56;96694.00;;;11.40
8227;BMP180;4154;48.810;9.012;2023-02-23T14:23:33;96697.00;;;11.40
8227;BMP180;4154;48.810;9.012;2023-02-23T14:26:16;96701.00;;;11.40
8227;BMP180;4154;48.810;9.012;2023-02-23T14:31:36;96702.00;;;11.40
8227;BMP180;4154;48.810;9.012;2023-02-23T14:34:08;96710.00;;;11.40
8227;BMP180;4154;48.810;9.012;2023-02-23T14:36:42;96706.00;;;11.30
8227;BMP180;4154;48.810;9.012;2023-02-23T14:42:05;96712.00;;;11.30
8227;BMP180;4154;48.810;9.012;2023-02-23T14:44:34;96705.00;;;11.20
8227;BMP180;4154;48.810;9.012;2023-02-23T14:47:15;96717.00;;;11.20
8227;BMP180;4154;48.810;9.012;2023-02-23T14:50:04;96704.00;;;11.10
8227;BMP180;4154;48.810;9.012;2023-02-23T14:52:40;96711.00;;;11.00
8227;BMP180;4154;48.810;9.012;2023-02-23T14:57:47;96701.00;;;10.70
8227;BMP180;4154;48.810;9.012;2023-02-23T15:02:53;96695.00;;;10.60
8227;BMP180;4154;48.810;9.012;2023-02-23T15:05:25;96697.00;;;10.50
8227;BMP180;4154;48.810;9.012;2023-02-23T15:07:51;96702.00;;;10.60
8227;BMP180;4154;48.810;9.012;2023-02-23T15:10:47;96695.00;;;10.60
8227;BMP180;4154;48.810;9.012;2023-02-23T15:13:32;96704.00;;;10.60
8227;BMP180;4154;48.810;9.012;2023-02-23T15:16:05;96693.00;;;10.70
8227;BMP180;4154;48.810;9.012;2023-02-23T15:19:27;96712.00;;;10.80
8227;BMP180;4154;48.810;9.012;2023-02-23T15:21:58;96708.00;;;10.70
8227;BMP180;4154;48.810;9.012;2023-02-23T15:24:40;96700.00;;;10.90
8227;BMP180;4154;48.810;9.012;2023-02-23T15:27:15;96708.00;;;10.80
8227;BMP180;4154;48.810;9.012;2023-02-23T15:29:41;96701.00;;;10.80
8227;BMP180;4154;48.810;9.012;2023-02-23T15:32:17;96700.00;;;10.80
8227;BMP180;4154;48.810;9.012;2023-02-23T15:34:44;96709.00;;;10.80
8227;BMP180;4154;48.810;9.012;2023-02-23T15:37:30;96714.00;;;10.80
8227;BMP180;4154;48.810;9.012;2023-02-23T15:40:05;96711.00;;;10.80
8227;BMP180;4154;48.810;9.012;2023-02-23T15:42:54;96718.00;;;10.80
8227;BMP180;4154;48.810;9.012;2023-02-23T15:47:59;96722.00;;;10.80
8227;BMP180;4154;48.810;9.012;2023-02-23T15:50:34;96718.00;;;10.80
8227;BMP180;4154;48.810;9.012;2023-02-23T15:53:08;96709.00;;;10.80
8227;BMP180;4154;48.810;9.012;2023-02-23T15:55:42;96710.00;;;10.80
8227;BMP180;4154;48.810;9.012;2023-02-23T15:58:31;96717.00;;;10.80
8227;BMP180;4154;48.810;9.012;2023-02-23T16:01:10;96708.00;;;10.70
8227;BMP180;4154;48.810;9.012;2023-02-23T16:03:56;96701.00;;;10.70
8227;BMP180;4154;48.810;9.012;2023-02-23T16:06:50;96710.00;;;10.70
8227;BMP180;4154;48.810;9.012;2023-02-23T16:12:02;96719.00;;;10.70
8227;BMP180;4154;48.810;9.012;2023-02-23T16:14:49;96716.00;;;10.70
8227;BMP180;4154;48.810;9.012;2023-02-23T16:17:43;96711.00;;;10.70
8227;BMP180;4154;48.810;9.012;2023-02-23T16:20:16;96710.00;;;10.70
8227;BMP180;4154;48.810;9.012;2023-02-23T16:22:45;96708.00;;;10.70
8227;BMP180;4154;48.810;9.012;2023-02-23T16:25:15;96706.00;;;10.70
8227;BMP180;4154;48.810;9.012;2023-02-23T16:27:44;96715.00;;;10.60
8227;BMP180;4154;48.810;9.012;2023-02-23T16:30:32;96715.00;;;10.60
8227;BMP180;4154;48.810;9.012;2023-02-23T16:33:27;96714.00;;;10.60
8227;BMP180;4154;48.810;9.012;2023-02-23T16:36:18;96710.00;;;10.60
8227;BMP180;4154;48.810;9.012;2023-02-23T16:39:00;96710.00;;;10.60
8227;BMP180;4154;48.810;9.012;2023-02-23T16:41:30;96715.00;;;10.60
8227;BMP180;4154;48.810;9.012;2023-02-23T16:44:00;96707.00;;;10.60
8227;BMP180;4154;48.810;9.012;2023-02-23T16:49:27;96710.00;;;10.50
8227;BMP180;4154;48.810;9.012;2023-02-23T16:51:57;96707.00;;;10.50
8227;BMP180;4154;48.810;9.012;2023-02-23T16:54:23;96714.00;;;10.50
8227;BMP180;4154;48.810;9.012;2023-02-23T16:56:50;96714.00;;;10.40
8227;BMP180;4154;48.810;9.012;2023-02-23T16:59:20;96720.00;;;10.30